Terminal Aerodrome Forecast
Issued by NWS

Home | Current Version | Previous Version | Text Only | Print | Product List | Glossary On
Versions: 1 2 3 4 5 6 7 8 9 10 11 12 13 14 15
000
FTUS46 KMFR 231138
TAFOTH
TAF
KOTH 231138Z 2312/2412 36003KT P6SM SKC
     FM231900 35022G30KT P6SM SKC
     FM240400 36011KT P6SM SKC
     FM240500 36007KT 6SM BR SKC
     FM240900 02004KT 2SM BR SKC=

USA.gov is the U.S. government's official web portal to all federal, state and local government web resources and services.